• Join FlightAware (Why Join?)
  • Login
  • US Flag 
10:26PM EDT


 

Airport Tracker/Info


-or-


 

Live Flight TrackerFlight Track Log ✈ AAY892 ✈ 09-May-2013 ✈ KPIE - KYNG

Flight Track Log - Related Links

Times and Time Zones

All times are in EDT time to prevent confusion due to time zone crossing. See the AAY892 flight status page for this flight to view local times or setup timezone preferences in your user account.

Time Position Orientation Groundspeed Altitude Reporting Facility
EDT Latitude Longitude Course Direction KTS MPH feet Rate Location/Type
07:09AM 27.9333 -82.7000 30° Northeast 168 193 900  Level Tampa TRACON
07:11AM 27.9833 -82.6667 30° Northeast 227 261 2,500 1,620 Climbing Tampa TRACON
07:12AM 28.0667 -82.6500 10° North 269 310 4,900 2,100 Climbing Tampa TRACON
07:14AM 28.2311 -82.6500 360° North 292 336 9,400 1,920 Climbing Jacksonville Center
07:15AM 28.3167 -82.6475 North 292 336 10,900 1,260 Climbing Jacksonville Center
07:16AM 28.4189 -82.6425 North 321 369 12,000 1,620 Climbing Jacksonville Center
07:17AM 28.5317 -82.6375 North 365 420 14,200 2,220 Climbing Jacksonville Center
07:18AM 28.6464 -82.6300 North 392 451 16,500 2,040 Climbing Jacksonville Center
07:19AM 28.7592 -82.6272 North 404 465 18,300 1,800 Climbing Jacksonville Center
07:20AM 28.8758 -82.6222 North 414 476 20,100 1,680 Climbing Jacksonville Center
07:21AM 28.9992 -82.6147 North 426 490 21,700 1,440 Climbing Jacksonville Center
07:22AM 29.1242 -82.6119 North 438 504 23,000 1,680 Climbing Jacksonville Center
07:23AM 29.2475 -82.6069 North 443 510 25,100 1,860 Climbing Jacksonville Center
07:24AM 29.3664 -82.5994 North 438 504 26,800 1,500 Climbing Jacksonville Center
07:25AM 29.4875 -82.5944 North 433 498 28,100 1,200 Climbing Jacksonville Center
07:26AM 29.6064 -82.5892 North 433 498 29,300 1,200 Climbing Jacksonville Center
07:27AM 29.7297 -82.5864 North 433 498 30,600 840 Climbing Jacksonville Center
07:28AM 29.8464 -82.5814 North 427 491 31,000 180 Climbing Jacksonville Center
07:29AM 29.9656 -82.5761 North 422 486 31,000  Level Jacksonville Center
07:30AM 30.0844 -82.5733 North 422 486 31,000  Level Jacksonville Center
07:31AM 30.2014 -82.5706 North 422 486 31,000  Level Jacksonville Center
07:32AM 30.3183 -82.5628 North 422 486 31,000  Level Jacksonville Center
07:33AM 30.4372 -82.5578 North 422 486 31,000  Level Jacksonville Center
07:34AM 30.5625 -82.5525 North 417 480 31,000  Level Jacksonville Center
07:35AM 30.6794 -82.5494 North 417 480 31,000  Level Jacksonville Center
07:36AM 30.7983 -82.5444 North 422 486 31,000  Level Jacksonville Center
07:37AM 30.9153 -82.5389 North 417 480 31,000  Level Jacksonville Center
07:38AM 31.0322 -82.5339 North 417 480 31,000  Level Jacksonville Center
07:39AM 31.1492 -82.5283 North 417 480 31,000  Level Jacksonville Center
07:40AM 31.2661 -82.5208 North 417 480 31,000  Level Jacksonville Center
07:41AM 31.3725 -82.5153 North 422 486 31,000  Level Jacksonville Center
07:43AM 31.6431 -82.4922 North 421 484 31,000  Level Atlanta Center
07:44AM 31.7575 -82.4756 North 421 484 31,000  Level Atlanta Center
07:45AM 31.8764 -82.4564 North 427 491 31,000  Level Atlanta Center
07:46AM 31.9931 -82.4397 North 421 484 31,000  Level Atlanta Center
07:47AM 32.1033 -82.4206 North 415 478 31,000  Level Atlanta Center
07:48AM 32.2200 -82.4014 North 415 478 31,000  Level Atlanta Center
07:49AM 32.3344 -82.3794 North 415 478 31,000  Level Atlanta Center
07:50AM 32.4492 -82.3650 North 410 472 31,000  Level Atlanta Center
07:51AM 32.5617 -82.3481 North 410 472 31,000  Level Atlanta Center
07:52AM 32.6761 -82.3286 North 410 472 31,000 480 Level Atlanta Center
07:53AM 32.7886 -82.3117 North 410 472 32,000 900 Climbing Atlanta Center
07:54AM 32.8989 -82.2922 North 410 472 32,900 480 Climbing Atlanta Center
07:55AM 33.0239 -82.2725 North 405 466 33,000  Climbing Atlanta Center
07:56AM 33.1342 -82.2553 North 405 466 33,000  Level Atlanta Center
07:57AM 33.2447 -82.2381 North 405 466 33,000  Level Atlanta Center
07:58AM 33.3569 -82.2183 North 405 466 33,000  Level Atlanta Center
07:59AM 33.4694 -82.2011 North 405 466 33,000  Level Atlanta Center
08:00AM 33.5778 -82.1811 North 405 466 33,000  Level Atlanta Center
08:01AM 33.6903 -82.1639 North 405 466 33,000  Level Atlanta Center
08:02AM 33.8025 -82.1439 North 405 466 33,000  Level Atlanta Center
08:03AM 33.9150 -82.1239 North 405 466 33,000  Level Atlanta Center
08:04AM 34.0150 -82.1092 North 405 466 33,000  Level Atlanta Center
08:05AM 34.1253 -82.0889 North 405 466 33,000  Level Atlanta Center
08:06AM 34.2397 -82.0714 North 410 472 33,000  Level Atlanta Center
08:07AM 34.3500 -82.0486 10° North 404 465 33,000  Level Atlanta Center
08:08AM 34.4578 -82.0033 19° North 404 465 33,000  Level Atlanta Center
08:09AM 34.5653 -81.9503 22° Northeast 409 471 33,000  Level Atlanta Center
08:10AM 34.6856 -81.8992 19° North 409 471 33,000  Level Atlanta Center
08:11AM 34.7889 -81.8486 22° Northeast 409 471 33,000  Level Atlanta Center
08:12AM 34.8986 -81.7975 21° North 409 471 33,000  Level Atlanta Center
08:13AM 35.0061 -81.7439 22° Northeast 409 471 33,000  Level Atlanta Center
08:14AM 35.1136 -81.6928 21° North 409 471 33,000  Level Atlanta Center
08:15AM 35.2211 -81.6386 22° Northeast 409 471 33,000  Level Atlanta Center
08:16AM 35.3286 -81.5872 21° North 409 471 33,000  Level Atlanta Center
08:17AM 35.4258 -81.5436 20° North 409 471 33,000  Level Atlanta Center
08:18AM 35.5333 -81.4892 22° Northeast 409 471 33,000  Level Atlanta Center
08:19AM 35.6406 -81.4400 20° North 409 471 33,000  Level Atlanta Center
08:20AM 35.7603 -81.3797 22° Northeast 409 471 33,000  Level Atlanta Center
08:21AM 35.8678 -81.3250 22° Northeast 409 471 33,000  Level Atlanta Center
08:22AM 35.9728 -81.2728 22° Northeast 409 471 33,000  Level Atlanta Center
08:23AM 36.0781 -81.2178 23° Northeast 414 476 33,000  Level Atlanta Center
08:24AM 36.1853 -81.1653 22° Northeast 409 471 33,000  Level Atlanta Center
08:25AM 36.2883 -81.1125 22° Northeast 409 471 33,000  Level Atlanta Center
08:26AM 36.3853 -81.0653 21° North 409 471 33,000  Level Atlanta Center
08:27AM 36.4922 -81.0122 22° Northeast 409 471 33,000  Level Atlanta Center
08:28AM 36.5975 -80.9617 21° North 409 471 33,000  Level Atlanta Center
08:29AM 36.7044 -80.9031 24° Northeast 409 471 33,000  Level Atlanta Center
08:31AM 36.9317 -80.7939 21° North 414 476 33,000  Level Washington Center
08:32AM 37.0406 -80.7389 22° Northeast 414 476 33,000  Level Washington Center
08:33AM 37.1617 -80.6897 18° North 414 476 33,000  Level Washington Center
08:34AM 37.2717 -80.6553 14° North 409 471 33,000  Level Washington Center
08:35AM 37.3794 -80.6181 15° North 404 465 33,000  Level Washington Center
08:36AM 37.4917 -80.5833 14° North 404 465 33,000  Level Washington Center
08:37AM 37.6017 -80.5461 15° North 404 465 33,000  Level Washington Center
08:38AM 37.7011 -80.5133 15° North 404 465 33,000  Level Washington Center
08:39AM 37.8111 -80.4758 15° North 404 465 33,000  Level Washington Center
08:40AM 37.9231 -80.4358 16° North 404 465 33,000  Level Washington Center
08:41AM 38.0331 -80.4006 14° North 404 465 33,000  Level Washington Center
08:42AM 38.1431 -80.3628 15° North 404 465 33,000  Level Washington Center
08:43AM 38.2678 -80.3206 15° North 404 465 33,000  Level Washington Center
08:44AM 38.3778 -80.2797 16° North 404 465 33,000  Level Washington Center
08:46AM 38.6014 -80.1981 16° North 419 482 33,000  Level Cleveland Center
08:47AM 38.7117 -80.1603 15° North 413 475 33,000  Level Cleveland Center
08:48AM 38.8197 -80.1222 15° North 408 470 33,000  Level Cleveland Center
08:49AM 38.9322 -80.0869 14° North 403 464 33,000  Level Cleveland Center
08:50AM 39.0428 -80.0914 358° North 403 464 33,000  Level Cleveland Center
08:51AM 39.1553 -80.0986 357° North 403 464 33,000 -240 Level Cleveland Center
08:52AM 39.2678 -80.1086 356° North 403 464 32,600 -600 Descending Cleveland Center
08:53AM 39.3806 -80.1158 357° North 403 464 31,900 -780 Descending Cleveland Center
08:54AM 39.4931 -80.1231 357° North 403 464 31,100 -840 Descending Cleveland Center
08:55AM 39.6036 -80.1303 357° North 403 464 30,300 -840 Descending Cleveland Center
08:56AM 39.7161 -80.1378 357° North 403 464 29,500 -1,020 Descending Cleveland Center
08:57AM 39.8286 -80.1453 357° North 403 464 28,300 -1,860 Descending Cleveland Center
08:58AM 39.9456 -80.1525 357° North 408 470 25,800 -2,640 Descending Cleveland Center
08:59AM 40.0622 -80.1600 357° North 413 475 23,100 -2,820 Descending Cleveland Center
09:00AM 40.1789 -80.1672 357° North 413 475 20,300 -2,640 Descending Cleveland Center
09:01AM 40.2917 -80.1747 357° North 413 475 17,800 -2,520 Descending Cleveland Center
09:02AM 40.4042 -80.1933 353° North 401 461 15,300 -1,440 Descending Cleveland Center
09:03AM 40.5022 -80.2364 342° North 374 430 15,000 -1,080 Descending Cleveland Center
09:04AM 40.5922 -80.2906 335° Northwest 363 418 13,200 -1,920 Descending Cleveland Center
09:05AM 40.6756 -80.3422 335° Northwest 339 390 11,200 -1,620 Descending Cleveland Center
09:06AM 40.7467 -80.3831 336° Northwest 326 375 10,100 -1,080 Descending Cleveland Center
09:07AM 40.8133 -80.4214 336° Northwest 286 329 9,100 -600 Descending Cleveland Center
09:08AM 40.8883 -80.4622 338° Northwest 267 307 9,000 -720 Descending Cleveland Center
09:09AM 40.9531 -80.5006 336° Northwest 256 295 7,700 -1,500 Descending Cleveland Center
09:10AM 41.0219 -80.5308 342° North 256 295 6,000 -1,800 Descending Cleveland Center
09:11AM 41.0886 -80.5197 North 243 280 4,100 -1,560 Descending Cleveland Center
09:12AM 41.1492 -80.5336 350° North 243 280 3,000 -600 Descending Cleveland Center
09:13AM 41.1886 -80.5858 315° West 206 237 3,000 -480 Level Cleveland Center
09:14AM 41.2261 -80.6328 317° Northwest 181 208 2,100 -900 Descending Cleveland Center
09:15AM 41.2553 -80.6717 315° West 159 183 1,300 -840 Descending Cleveland Center
09:17AM 41.2500 -80.6667 North  Level FlightAware Approximate
09:24AM 41.2616 -80.6804 North  Level Estimated
09:25AM 41.2616 -80.6804 North  Level Estimated